• °C
  • Pobieranie danych...
wx


PRINT OUT SECTION, show »

TAF EPBC 120200Z NIL=

TAF EPCE 121700Z 1218/1303 29010KT 9999 SCT040 TEMPO 1218/1303
29010G20KT=

TAF EPCE 122000Z 1221/1306 29010KT 9999 SCT040 TEMPO 1221/1306
29012G22KT=

TAF EPDA 121700Z 1218/1303 29018KT CAVOK TEMPO 1218/1303 30022G33KT
SCT040=

TAF EPDA 122000Z 1221/1306 30018KT CAVOK TEMPO 1221/1306 31022G35KT
SCT040=

TAF EPDE 120200Z NIL=

TAF EPKS 121700Z 1218/1303 27010KT 9999 SCT040=

TAF EPKS 122000Z 1221/1306 27010KT 9999 SCT040=

TAF EPLK 121700Z 1218/1303 27010KT 9999 BKN040
TEMPO 1218/1221 5000 SHRA SCT008 BKN020CB
BECMG 1219/1221 30012KT=

TAF EPLK 122000Z 1221/1306 30010KT 9999 SCT035=

TAF EPMB 121700Z 1218/1303 24008KT 9999 BKN030 TEMPO 1218/1220 5000
SHRA BKN020CB BECMG 1220/1222 SCT040=

TAF EPMB 122000Z 1221/1306 28010KT CAVOK TEMPO 1221/1224 BKN040=

TAF COR EPMI 121700Z 1218/1303 30012KT CAVOK
TEMPO 1218/1221 6000 SHRA BKN015CB
PROB30 TEMPO 1218/1219 29015G30KT 3000 TSRA BKN012CB=

TAF EPMI 122000Z 1221/1306 30012KT CAVOK
PROB30 TEMPO 1302/1306 28016G28KT=

TAF EPMM 121700Z 1218/1303 29008KT CAVOK TEMPO 1218/1224 VRB25G40KT
3000 SHRA TSRA SCT005 BKN020CB=

TAF EPMM 122000Z 1221/1306 29006KT CAVOK
PROB30 TEMPO 1221/1224 4000 SHRA SCT005 BKN020CB=

TAF EPNA 120200Z NIL=

TAF EPOK 121700Z 1218/1303 29014KT 9999 SCT040 TEMPO 1218/1303
29017G30KT CAVOK =

TAF EPOK 122000Z 1221/1306 29014KT CAVOK TEMPO 1221/1306 29017G30KT
SCT040 =

TAF EPPR 120200Z NIL=

TAF EPPW 121700Z 1218/1303 29010KT CAVOK=

TAF EPPW 122000Z 1221/1306 29010KT CAVOK=

TAF EPRA 120200Z NIL=

TAF EPSN 121700Z 1218/1303 30012KT 9999 SCT040
PROB30 TEMPO 1218/1220 30014G26KT=

TAF EPSN 122000Z 1221/1306 31010KT CAVOK
PROB30 1300/1306 BKN027=



IMGW-PIB Sites